Airport View

Enter AWOS ICAO identifier for current METAR.

ex. KFNL

KICT 190553Z 35017G24KT 10SM FEW080 11/02 A3001 RMK AO2 PK WND 35028/0526 SLP159 60000 T01060022 10161 20106 402060100 53020

19 Apr 2019 06:52

Phone: 316-945-8022

Other Area AWOS: KIAB - KBEC - KAAO - K1K1

TAF AMD KICT 190522Z 1905/2006 34013KT P6SM SKC FM191500 34017G26KT P6SM SKC